createdAt,value
2022-10-11T00:02:18.401Z,11.50
2022-10-11T00:04:50.563Z,15.47
2022-10-11T00:07:18.680Z,10.90
2022-10-11T00:09:46.197Z,10.73
2022-10-11T00:12:12.996Z,14.02
2022-10-11T00:14:39.831Z,9.93
2022-10-11T00:17:08.005Z,12.93
2022-10-11T00:19:34.831Z,8.30
2022-10-11T00:22:01.695Z,9.17
2022-10-11T00:24:28.528Z,13.13
2022-10-11T00:26:55.332Z,13.43
2022-10-11T00:29:22.116Z,8.00
2022-10-11T00:31:48.913Z,12.90
2022-10-11T00:34:18.101Z,8.70
2022-10-11T00:36:45.876Z,10.33
2022-10-11T00:39:14.471Z,11.73
2022-10-11T00:41:41.578Z,17.53
2022-10-11T00:44:19.051Z,11.88
2022-10-11T00:46:55.976Z,14.30
2022-10-11T00:49:43.145Z,7.60
2022-10-11T00:52:31.178Z,11.20
2022-10-11T00:55:02.755Z,13.77
2022-10-11T00:57:33.212Z,12.70
2022-10-11T01:00:00.542Z,9.40
2022-10-11T01:02:28.182Z,10.87
2022-10-11T01:05:11.651Z,12.60
2022-10-11T01:07:43.178Z,16.17
2022-10-11T01:10:10.311Z,9.23
2022-10-11T01:12:48.632Z,20.40
2022-10-11T01:15:25.857Z,12.27
2022-10-11T01:18:07.862Z,7.70
2022-10-11T01:21:00.558Z,16.70
2022-10-11T01:23:59.486Z,10.75
2022-10-11T01:27:07.234Z,12.80
2022-10-11T01:29:53.772Z,8.85
2022-10-11T01:32:32.192Z,14.32
2022-10-11T01:35:07.513Z,14.00
2022-10-11T01:37:43.346Z,19.98
2022-10-11T01:40:15.732Z,11.30
2022-10-11T01:42:43.894Z,12.30
2022-10-11T01:45:15.561Z,11.93
2022-10-11T01:47:42.645Z,13.45
2022-10-11T01:50:40.419Z,11.30
2022-10-11T01:53:21.531Z,13.00
2022-10-11T01:55:57.465Z,15.47
2022-10-11T01:59:07.410Z,9.33
2022-10-11T02:01:59.809Z,12.00
2022-10-11T02:04:48.439Z,15.15
2022-10-11T02:07:31.599Z,12.97
2022-10-11T02:10:11.597Z,12.35
2022-10-11T02:12:44.076Z,11.68
2022-10-11T02:15:13.887Z,9.40
2022-10-11T02:17:55.987Z,17.80
2022-10-11T02:20:26.458Z,12.60
2022-10-11T02:23:00.001Z,10.67
2022-10-11T02:25:30.205Z,14.15
2022-10-11T02:28:01.848Z,12.73
2022-10-11T02:30:31.024Z,12.60
2022-10-11T02:32:58.880Z,14.50
2022-10-11T02:35:29.489Z,20.92
2022-10-11T02:38:14.281Z,8.75
2022-10-11T02:40:44.993Z,12.90
2022-10-11T02:43:23.826Z,15.25
2022-10-11T02:45:55.950Z,11.27
2022-10-11T02:48:25.178Z,17.90
2022-10-11T02:50:53.571Z,20.33
2022-10-11T02:53:21.798Z,14.73
2022-10-11T02:55:50.099Z,13.93
2022-10-11T02:58:17.025Z,10.88
2022-10-11T03:00:44.074Z,12.07
2022-10-11T03:03:10.878Z,8.67
2022-10-11T03:05:40.794Z,10.67
2022-10-11T03:08:12.458Z,11.85
2022-10-11T03:10:39.883Z,16.88
2022-10-11T03:13:06.726Z,15.63
2022-10-11T03:15:34.094Z,14.93
2022-10-11T03:18:00.906Z,13.00
2022-10-11T03:20:27.783Z,19.67
2022-10-11T03:22:54.543Z,13.17
2022-10-11T03:25:21.354Z,12.65
2022-10-11T03:27:48.153Z,7.78
2022-10-11T03:30:18.286Z,11.50
2022-10-11T03:32:46.079Z,16.40
2022-10-11T03:35:12.954Z,13.65
2022-10-11T03:37:39.822Z,13.00
2022-10-11T03:40:08.395Z,12.75
2022-10-11T03:42:36.181Z,10.50
2022-10-11T03:45:07.996Z,14.00
2022-10-11T03:47:36.264Z,12.33
2022-10-11T03:50:03.955Z,17.58
2022-10-11T03:52:30.769Z,11.93
2022-10-11T03:54:57.957Z,18.30
2022-10-11T03:57:24.853Z,9.52
2022-10-11T03:59:51.660Z,23.48
2022-10-11T04:02:18.525Z,14.80
2022-10-11T04:04:45.857Z,18.67
2022-10-11T04:07:12.685Z,20.43
2022-10-11T04:09:39.520Z,12.57
2022-10-11T04:12:06.598Z,10.93
2022-10-11T04:14:33.515Z,10.00
2022-10-11T04:17:00.728Z,14.00
2022-10-11T04:19:27.831Z,13.07
2022-10-11T04:21:54.604Z,12.40
2022-10-11T04:24:21.496Z,14.57
2022-10-11T04:26:48.619Z,18.40
2022-10-11T04:29:15.445Z,13.68
2022-10-11T04:31:42.429Z,12.00
2022-10-11T04:34:09.210Z,12.47
2022-10-11T04:36:36.470Z,13.40
2022-10-11T04:39:03.822Z,17.73
2022-10-11T04:41:30.650Z,14.60
2022-10-11T04:43:57.556Z,13.07
2022-10-11T04:46:25.040Z,16.20
2022-10-11T04:48:51.995Z,14.23
2022-10-11T04:51:19.345Z,16.10
2022-10-11T04:53:46.293Z,15.60
2022-10-11T04:56:15.006Z,18.10
2022-10-11T04:58:41.992Z,13.60
2022-10-11T05:01:10.502Z,13.80
2022-10-11T05:03:37.990Z,9.70
2022-10-11T05:06:06.165Z,17.77
2022-10-11T05:08:33.638Z,14.67
2022-10-11T05:11:06.219Z,14.47
2022-10-11T05:13:34.655Z,13.07
2022-10-11T05:16:03.308Z,12.17
2022-10-11T05:18:32.082Z,10.68
2022-10-11T05:21:04.490Z,15.05
2022-10-11T05:23:32.778Z,11.90
2022-10-11T05:26:00.476Z,12.70
2022-10-11T05:28:28.092Z,12.47
2022-10-11T05:30:55.687Z,11.77
2022-10-11T05:33:23.167Z,15.17
2022-10-11T05:35:50.000Z,15.60
2022-10-11T05:38:17.172Z,13.90
2022-10-11T05:40:43.992Z,9.80
2022-10-11T05:43:10.817Z,10.50
2022-10-11T05:45:39.238Z,13.93
2022-10-11T05:48:06.618Z,18.40
2022-10-11T05:50:33.717Z,14.40
2022-10-11T05:53:00.925Z,18.17
2022-10-11T05:55:28.001Z,11.68
2022-10-11T05:57:56.740Z,14.07
2022-10-11T06:00:24.749Z,15.33
2022-10-11T06:02:51.520Z,13.23
2022-10-11T06:05:18.752Z,12.65
2022-10-11T06:07:45.564Z,12.80
2022-10-11T06:10:12.410Z,13.17
2022-10-11T06:12:39.223Z,24.43
2022-10-11T06:15:07.499Z,20.55
2022-10-11T06:17:34.625Z,16.43
2022-10-11T06:20:01.439Z,15.00
2022-10-11T06:22:28.274Z,20.43
2022-10-11T06:24:55.072Z,15.93
2022-10-11T06:27:21.851Z,16.25
2022-10-11T06:29:49.126Z,16.17
2022-10-11T06:32:15.880Z,13.00
2022-10-11T06:34:42.662Z,16.83
2022-10-11T06:37:09.462Z,18.93
2022-10-11T06:39:36.214Z,15.17
2022-10-11T06:42:03.058Z,12.93
2022-10-11T06:44:30.075Z,22.83
2022-10-11T06:46:56.811Z,15.93
2022-10-11T06:49:23.803Z,16.20
2022-10-11T06:51:51.310Z,18.50
2022-10-11T06:54:18.195Z,18.57
2022-10-11T06:56:45.761Z,17.33
2022-10-11T06:59:13.449Z,18.87
2022-10-11T07:01:40.674Z,20.57
2022-10-11T07:04:08.356Z,14.30
2022-10-11T07:06:38.844Z,18.03
2022-10-11T07:09:06.082Z,21.97
2022-10-11T07:11:33.255Z,18.93
2022-10-11T07:14:02.607Z,19.70
2022-10-11T07:16:29.432Z,19.27
2022-10-11T07:19:01.439Z,21.97
2022-10-11T07:21:30.450Z,31.33
2022-10-11T07:23:57.414Z,17.33
2022-10-11T07:26:24.217Z,18.47
2022-10-11T07:28:51.525Z,19.40
2022-10-11T07:31:22.455Z,28.80
2022-10-11T07:33:49.316Z,21.87
2022-10-11T07:36:16.430Z,20.97
2022-10-11T07:38:45.006Z,23.60
2022-10-11T07:41:12.107Z,18.40
2022-10-11T07:43:39.119Z,28.57
2022-10-11T07:46:07.052Z,29.90
2022-10-11T07:48:35.626Z,33.53
2022-10-11T07:51:14.695Z,25.43
2022-10-11T07:53:43.764Z,21.27
2022-10-11T07:56:12.617Z,24.70
2022-10-11T07:58:40.579Z,21.40
2022-10-11T08:01:08.709Z,23.13
2022-10-11T08:03:36.487Z,23.13
2022-10-11T08:06:06.330Z,19.60
2022-10-11T08:08:33.384Z,17.77
2022-10-11T08:11:00.988Z,20.13
2022-10-11T08:13:28.116Z,23.03
2022-10-11T08:15:55.197Z,25.20
2022-10-11T08:18:22.051Z,18.50
2022-10-11T08:20:49.321Z,18.30
2022-10-11T08:23:17.392Z,16.10
2022-10-11T08:25:46.382Z,15.43
2022-10-11T08:28:17.100Z,18.30
2022-10-11T08:30:52.310Z,16.90
2022-10-11T08:33:21.342Z,16.00
2022-10-11T08:35:50.273Z,15.80
2022-10-11T08:38:18.057Z,17.70
2022-10-11T08:40:48.037Z,14.53
2022-10-11T08:43:54.510Z,12.80
2022-10-11T08:46:28.992Z,24.23
2022-10-11T08:48:55.887Z,20.83
2022-10-11T08:51:31.280Z,16.47
2022-10-11T08:54:13.922Z,14.87
2022-10-11T08:56:43.323Z,15.67
2022-10-11T08:59:13.081Z,20.93
2022-10-11T09:01:47.710Z,10.97
2022-10-11T09:04:16.150Z,16.20
2022-10-11T09:07:01.354Z,15.67
2022-10-11T09:09:55.698Z,17.07
2022-10-11T09:12:53.706Z,21.70
2022-10-11T09:15:32.676Z,10.47
2022-10-11T09:18:28.483Z,19.30
2022-10-11T09:21:09.877Z,13.13
2022-10-11T09:23:41.849Z,10.03
2022-10-11T09:26:17.002Z,15.43
2022-10-11T09:29:06.506Z,22.83
2022-10-11T09:31:33.464Z,17.90
2022-10-11T09:34:10.338Z,8.10
2022-10-11T09:36:44.952Z,11.50
2022-10-11T09:39:23.696Z,12.67
2022-10-11T09:42:00.133Z,13.07
2022-10-11T09:44:33.984Z,10.50
2022-10-11T09:47:00.836Z,14.63
2022-10-11T09:50:07.332Z,12.47
2022-10-11T09:52:34.432Z,10.90
2022-10-11T09:55:03.009Z,8.20
2022-10-11T09:57:35.952Z,11.13
2022-10-11T10:00:18.772Z,10.43
2022-10-11T10:02:57.137Z,9.43
2022-10-11T10:05:26.489Z,10.00
2022-10-11T10:08:11.657Z,8.30
2022-10-11T10:10:41.091Z,9.83
2022-10-11T10:13:22.229Z,6.10
2022-10-11T10:15:51.718Z,10.97
2022-10-11T10:18:27.236Z,15.23
2022-10-11T10:20:57.298Z,11.07
2022-10-11T10:23:29.651Z,9.83
2022-10-11T10:26:14.968Z,9.17
2022-10-11T10:28:55.157Z,10.40
2022-10-11T10:31:40.269Z,12.10
2022-10-11T10:34:31.548Z,8.20
2022-10-11T10:37:16.117Z,7.93
2022-10-11T10:39:50.097Z,7.50
2022-10-11T10:42:20.342Z,6.67
2022-10-11T10:44:52.652Z,7.27
2022-10-11T10:47:31.417Z,5.80
2022-10-11T10:50:13.016Z,8.87
2022-10-11T10:52:53.589Z,8.70
2022-10-11T10:55:43.279Z,6.17
2022-10-11T10:58:19.102Z,6.57
2022-10-11T11:00:52.283Z,4.20
2022-10-11T11:03:43.634Z,3.87
2022-10-11T11:06:36.950Z,3.80
2022-10-11T11:09:18.744Z,5.23
2022-10-11T11:11:51.792Z,2.50
2022-10-11T11:14:33.587Z,5.57
2022-10-11T11:17:22.825Z,3.73
2022-10-11T11:20:26.989Z,5.87
2022-10-11T11:23:02.774Z,3.07
2022-10-11T11:26:00.703Z,6.63
2022-10-11T11:29:16.847Z,7.07
2022-10-11T11:31:56.498Z,2.70
2022-10-11T11:34:33.543Z,1.53
2022-10-11T11:37:04.608Z,1.33
2022-10-11T11:39:44.871Z,5.63
2022-10-11T11:42:23.651Z,6.43
2022-10-11T11:44:51.835Z,8.03
2022-10-11T11:47:33.848Z,2.93
2022-10-11T11:50:22.534Z,4.43
2022-10-11T11:53:13.514Z,6.07
2022-10-11T11:56:00.389Z,3.47
2022-10-11T11:58:46.092Z,2.00
2022-10-11T12:01:35.439Z,3.43
2022-10-11T12:04:12.881Z,2.20
2022-10-11T12:06:47.914Z,3.23
2022-10-11T12:09:27.454Z,2.57
2022-10-11T12:11:59.258Z,4.57
2022-10-11T12:14:34.277Z,7.30
2022-10-11T12:17:20.398Z,6.10
2022-10-11T12:20:16.364Z,3.63
2022-10-11T12:23:00.466Z,3.60
2022-10-11T12:25:27.306Z,4.27
2022-10-11T12:27:56.613Z,8.80
2022-10-11T12:30:48.662Z,8.40
2022-10-11T12:33:25.767Z,9.33
2022-10-11T12:35:55.491Z,7.47
2022-10-11T12:38:26.406Z,5.53
2022-10-11T12:41:00.607Z,2.30
2022-10-11T12:43:31.105Z,3.50
2022-10-11T12:46:19.182Z,2.90
2022-10-11T12:48:54.438Z,6.27
2022-10-11T12:51:36.754Z,3.90
2022-10-11T12:54:37.295Z,4.50
2022-10-11T12:57:28.129Z,7.43
2022-10-11T12:59:55.188Z,7.57
2022-10-11T13:02:38.982Z,4.93
2022-10-11T13:05:28.523Z,7.40
2022-10-11T13:07:58.561Z,3.13
2022-10-11T13:10:30.719Z,5.03
2022-10-11T13:13:04.229Z,3.13
2022-10-11T13:15:31.438Z,3.53
2022-10-11T13:18:00.678Z,2.30
2022-10-11T13:20:37.459Z,1.30
2022-10-11T13:23:28.998Z,3.70
2022-10-11T13:25:56.594Z,3.63
2022-10-11T13:28:23.989Z,9.63
2022-10-11T13:30:55.304Z,6.70
2022-10-11T13:33:32.072Z,3.53
2022-10-11T13:36:00.552Z,9.00
2022-10-11T13:38:30.789Z,4.27
2022-10-11T13:41:00.247Z,2.90
2022-10-11T13:43:29.799Z,11.23
2022-10-11T13:45:59.084Z,6.57
2022-10-11T13:48:31.743Z,10.50
2022-10-11T13:51:28.160Z,1.43
2022-10-11T13:54:00.401Z,13.33
2022-10-11T13:56:29.184Z,3.00
2022-10-11T13:58:56.707Z,7.40
2022-10-11T14:01:35.170Z,7.10
2022-10-11T14:04:09.089Z,3.40
2022-10-11T14:06:47.379Z,2.90
2022-10-11T14:09:24.002Z,7.80
2022-10-11T14:11:50.953Z,5.93
2022-10-11T14:14:33.053Z,6.70
2022-10-11T14:17:32.357Z,6.03
2022-10-11T14:20:32.281Z,10.67
2022-10-11T14:23:00.218Z,8.13
2022-10-11T14:25:27.099Z,6.40
2022-10-11T14:27:54.677Z,6.73
2022-10-11T14:30:26.454Z,2.77
2022-10-11T14:32:56.662Z,7.60
2022-10-11T14:35:29.107Z,4.60
2022-10-11T14:37:56.040Z,3.63
2022-10-11T14:40:31.605Z,4.70
2022-10-11T14:42:58.569Z,4.20
2022-10-11T14:45:25.884Z,6.83
2022-10-11T14:47:52.673Z,7.53
2022-10-11T14:50:23.099Z,4.27
2022-10-11T14:52:49.948Z,6.47
2022-10-11T14:55:16.830Z,4.37
2022-10-11T14:57:43.683Z,1.53
2022-10-11T15:00:20.406Z,5.57
2022-10-11T15:02:47.413Z,5.20
2022-10-11T15:05:14.385Z,5.73
2022-10-11T15:07:41.186Z,2.40
2022-10-11T15:10:19.848Z,2.63
2022-10-11T15:12:47.084Z,6.13
2022-10-11T15:15:19.795Z,9.43
2022-10-11T15:17:49.200Z,5.27
2022-10-11T15:20:32.836Z,5.20
2022-10-11T15:23:00.957Z,4.10
2022-10-11T15:25:29.611Z,7.00
2022-10-11T15:27:57.667Z,5.70
2022-10-11T15:30:27.964Z,11.37
2022-10-11T15:32:55.499Z,7.43
2022-10-11T15:35:23.451Z,8.17
2022-10-11T15:37:55.400Z,4.80
2022-10-11T15:40:23.866Z,3.30
2022-10-11T15:42:51.395Z,4.43
2022-10-11T15:45:19.518Z,8.80
2022-10-11T15:47:46.942Z,7.03
2022-10-11T15:50:15.347Z,6.27
2022-10-11T15:52:42.187Z,8.33
2022-10-11T15:55:09.043Z,5.40
2022-10-11T15:57:35.863Z,6.80
2022-10-11T16:00:03.106Z,7.60
2022-10-11T16:02:29.884Z,4.30
2022-10-11T16:04:56.670Z,4.93
2022-10-11T16:07:23.436Z,7.73
2022-10-11T16:09:50.292Z,8.50
2022-10-11T16:12:17.118Z,9.87
2022-10-11T16:14:47.195Z,11.77
2022-10-11T16:17:14.270Z,6.90
2022-10-11T16:19:41.117Z,4.43
2022-10-11T16:22:07.972Z,14.03
2022-10-11T16:24:34.788Z,6.50
2022-10-11T16:27:01.676Z,9.60
2022-10-11T16:29:28.653Z,10.30
2022-10-11T16:31:55.475Z,15.60
2022-10-11T16:34:22.336Z,6.60
2022-10-11T16:36:49.171Z,12.77
2022-10-11T16:39:18.418Z,13.40
2022-10-11T16:41:45.988Z,8.10
2022-10-11T16:44:18.131Z,4.43
2022-10-11T16:46:48.319Z,4.53
2022-10-11T16:49:17.021Z,15.23
2022-10-11T16:51:44.158Z,7.80
2022-10-11T16:54:10.948Z,4.70
2022-10-11T16:56:40.128Z,6.23
2022-10-11T16:59:08.464Z,12.90
2022-10-11T17:01:35.335Z,3.13
2022-10-11T17:04:02.134Z,9.70
2022-10-11T17:06:28.940Z,11.00
2022-10-11T17:08:55.740Z,11.30
2022-10-11T17:11:22.730Z,8.53
2022-10-11T17:13:51.642Z,6.10
2022-10-11T17:16:18.487Z,9.13
2022-10-11T17:18:45.778Z,11.83
2022-10-11T17:21:15.380Z,5.63
2022-10-11T17:23:42.306Z,6.33
2022-10-11T17:26:14.843Z,10.37
2022-10-11T17:28:41.950Z,8.13
2022-10-11T17:31:09.507Z,5.10
2022-10-11T17:33:36.817Z,10.30
2022-10-11T17:36:14.547Z,10.43
2022-10-11T17:38:41.488Z,15.97
2022-10-11T17:41:09.378Z,7.10
2022-10-11T17:43:36.383Z,12.63
2022-10-11T17:46:05.994Z,16.13
2022-10-11T17:48:36.560Z,7.97
2022-10-11T17:51:12.033Z,9.83
2022-10-11T17:53:39.160Z,10.77
2022-10-11T17:56:12.080Z,11.57
2022-10-11T17:58:39.146Z,16.23
2022-10-11T18:01:12.015Z,7.70
2022-10-11T18:03:39.355Z,8.70
2022-10-11T18:06:14.805Z,15.63
2022-10-11T18:08:41.953Z,14.97
2022-10-11T18:11:13.695Z,8.77
2022-10-11T18:13:45.728Z,13.80
2022-10-11T18:16:15.507Z,13.70
2022-10-11T18:18:43.407Z,12.47
2022-10-11T18:21:11.000Z,17.70
2022-10-11T18:23:38.362Z,16.47
2022-10-11T18:26:10.333Z,26.63
2022-10-11T18:28:37.425Z,14.27
2022-10-11T18:31:12.640Z,14.30
2022-10-11T18:33:40.671Z,21.87
2022-10-11T18:36:09.260Z,16.50
2022-10-11T18:38:38.076Z,30.23
2022-10-11T18:41:06.917Z,11.17
2022-10-11T18:43:34.523Z,11.83
2022-10-11T18:46:13.361Z,11.90
2022-10-11T18:48:42.117Z,18.83
2022-10-11T18:51:18.277Z,18.07
2022-10-11T18:53:45.926Z,13.27
2022-10-11T18:56:13.851Z,10.93
2022-10-11T18:58:41.371Z,13.73
2022-10-11T19:01:16.365Z,28.90
2022-10-11T19:03:44.368Z,13.90
2022-10-11T19:06:17.605Z,15.40
2022-10-11T19:08:46.165Z,13.73
2022-10-11T19:11:14.304Z,14.93
2022-10-11T19:13:41.654Z,16.73
2022-10-11T19:16:14.629Z,14.20
2022-10-11T19:18:44.254Z,17.87
2022-10-11T19:21:13.385Z,14.33
2022-10-11T19:23:45.033Z,16.67
2022-10-11T19:26:21.427Z,16.10
2022-10-11T19:28:53.732Z,15.00
2022-10-11T19:31:20.734Z,16.83
2022-10-11T19:33:49.581Z,20.73
2022-10-11T19:36:17.467Z,11.60
2022-10-11T19:38:46.927Z,28.20
2022-10-11T19:41:14.701Z,18.63
2022-10-11T19:43:41.850Z,17.37
2022-10-11T19:46:13.261Z,14.07
2022-10-11T19:48:40.159Z,16.43
2022-10-11T19:51:09.987Z,23.63
2022-10-11T19:53:37.360Z,19.23
2022-10-11T19:56:06.855Z,13.00
2022-10-11T19:58:33.987Z,23.40
2022-10-11T20:01:06.482Z,20.27
2022-10-11T20:03:34.077Z,27.53
2022-10-11T20:06:02.385Z,18.50
2022-10-11T20:08:31.343Z,19.07
2022-10-11T20:11:00.063Z,24.73
2022-10-11T20:13:32.514Z,23.73
2022-10-11T20:16:10.387Z,15.70
2022-10-11T20:18:38.371Z,23.67
2022-10-11T20:21:12.162Z,19.00
2022-10-11T20:26:11.024Z,20.60
2022-10-11T20:28:40.470Z,18.92
2022-10-11T20:31:14.940Z,13.47
2022-10-11T20:33:42.206Z,24.05
2022-10-11T20:36:12.095Z,16.90
2022-10-11T20:38:40.807Z,16.73
2022-10-11T20:41:09.375Z,19.50
2022-10-11T20:43:36.693Z,23.92
2022-10-11T20:46:11.815Z,16.77
2022-10-11T20:48:40.731Z,29.77
2022-10-11T20:51:11.097Z,28.30
2022-10-11T20:53:38.686Z,15.98
2022-10-11T20:56:09.962Z,19.30
2022-10-11T20:58:36.706Z,26.33
2022-10-11T21:01:14.178Z,16.63
2022-10-11T21:03:42.301Z,17.65
2022-10-11T21:06:09.177Z,22.40
2022-10-11T21:08:37.096Z,17.77
2022-10-11T21:11:04.630Z,18.42
2022-10-11T21:13:31.804Z,19.70
2022-10-11T21:16:08.024Z,21.20
2022-10-11T21:18:34.911Z,22.93
2022-10-11T21:21:10.290Z,18.20
2022-10-11T21:23:37.134Z,24.67
2022-10-11T21:26:06.416Z,15.27
2022-10-11T21:28:33.997Z,13.60
2022-10-11T21:31:08.993Z,14.60
2022-10-11T21:33:36.549Z,22.47
2022-10-11T21:36:08.521Z,19.60
2022-10-11T21:38:36.139Z,18.57
2022-10-11T21:41:08.145Z,21.07
2022-10-11T21:43:36.162Z,20.10
2022-10-11T21:46:32.482Z,20.17
2022-10-11T21:49:08.869Z,19.20
2022-10-11T21:51:35.691Z,18.77
2022-10-11T21:54:02.505Z,25.48
2022-10-11T21:56:29.675Z,29.70
2022-10-11T21:58:56.669Z,21.70
2022-10-11T22:01:23.973Z,19.90
2022-10-11T22:03:52.675Z,22.23
2022-10-11T22:06:20.004Z,12.33
2022-10-11T22:08:47.051Z,21.70
2022-10-11T22:11:13.845Z,18.07
2022-10-11T22:13:41.855Z,19.27
2022-10-11T22:16:11.760Z,16.33
2022-10-11T22:18:39.200Z,24.00
2022-10-11T22:21:08.059Z,12.45
2022-10-11T22:23:35.248Z,19.95
2022-10-11T22:26:06.911Z,24.00
2022-10-11T22:28:34.807Z,21.25
2022-10-11T22:31:02.116Z,23.87
2022-10-11T22:33:29.058Z,18.40
2022-10-11T22:36:00.404Z,18.70
2022-10-11T22:38:28.124Z,19.00
2022-10-11T22:40:58.001Z,19.40
2022-10-11T22:43:25.008Z,13.40
2022-10-11T22:45:51.885Z,18.27
2022-10-11T22:48:18.998Z,19.90
2022-10-11T22:50:46.113Z,19.40
2022-10-11T22:53:14.102Z,23.65
2022-10-11T22:55:41.291Z,21.30
2022-10-11T22:58:08.277Z,24.80
2022-10-11T23:00:35.607Z,20.02
2022-10-11T23:03:02.455Z,18.38
2022-10-11T23:05:29.402Z,17.63
2022-10-11T23:07:56.252Z,22.95
2022-10-11T23:10:23.170Z,27.65
2022-10-11T23:12:50.127Z,18.58
2022-10-11T23:15:17.077Z,20.33
2022-10-11T23:17:43.984Z,25.53
2022-10-11T23:20:11.449Z,36.67
2022-10-11T23:22:38.429Z,20.73
2022-10-11T23:25:05.854Z,20.83
2022-10-11T23:27:33.092Z,17.83
2022-10-11T23:29:59.941Z,21.17
2022-10-11T23:32:26.804Z,21.55
2022-10-11T23:34:53.782Z,24.25
2022-10-11T23:37:20.909Z,28.15
2022-10-11T23:39:47.859Z,17.88
2022-10-11T23:42:14.723Z,23.42
2022-10-11T23:44:41.545Z,21.17
2022-10-11T23:47:08.375Z,33.20
2022-10-11T23:49:35.190Z,27.48
2022-10-11T23:52:05.011Z,28.25
2022-10-11T23:54:31.899Z,18.17
2022-10-11T23:56:58.710Z,20.20
2022-10-11T23:59:25.573Z,27.27
